Time;durP1;ratioP1;P1;durP2;ratioP2;P2;SDS_P1;SDS_P2;PMS_P1;PMS_P2;Temp;Humidity;BMP_temperature;BMP_pressure;BME280_temperature;BME280_humidity;BME280_pressure;Samples;Min_cycle;Max_cycle;Signal;HPM_P1;HPM_P2
2022/03/16 00:01:24;;;;;;;9.55;3.20;;;2.40;99.90;;;;;;5037029;28;20393;-66
2022/03/16 00:03:50;;;;;;;17.52;2.60;;;2.30;99.90;;;;;;5037199;28;20094;-66
2022/03/16 00:06:15;;;;;;;8.90;3.08;;;2.30;99.90;;;;;;5044180;28;20116;-66
2022/03/16 00:08:41;;;;;;;11.43;3.33;;;2.30;99.90;;;;;;5037533;28;20021;-66
2022/03/16 00:11:06;;;;;;;8.90;4.53;;;2.20;99.90;;;;;;5041747;28;20033;-66
2022/03/16 00:13:33;;;;;;;7.20;3.08;;;2.20;99.90;;;;;;5041429;28;20256;-66
2022/03/16 00:15:58;;;;;;;6.70;3.17;;;2.20;99.90;;;;;;5039501;28;20109;-66
2022/03/16 00:18:24;;;;;;;8.48;2.95;;;2.30;99.90;;;;;;5038356;28;20117;-66
2022/03/16 00:20:49;;;;;;;10.18;2.55;;;2.50;99.90;;;;;;5040379;28;20461;-66
2022/03/16 00:23:15;;;;;;;5.45;2.50;;;2.60;99.90;;;;;;5039893;28;20087;-66
2022/03/16 00:25:41;;;;;;;11.25;3.42;;;2.40;99.90;;;;;;5040297;28;20362;-66
2022/03/16 00:28:07;;;;;;;9.85;3.03;;;2.20;99.90;;;;;;5043752;28;20040;-66
2022/03/16 00:30:33;;;;;;;11.38;3.45;;;2.10;99.90;;;;;;5035205;28;20045;-66
2022/03/16 00:32:59;;;;;;;6.18;2.42;;;2.30;99.90;;;;;;5039615;28;20037;-66
2022/03/16 00:35:24;;;;;;;5.00;2.47;;;2.50;99.90;;;;;;5040666;28;20409;-66
2022/03/16 00:37:50;;;;;;;6.43;2.80;;;2.50;99.90;;;;;;5038464;28;20040;-66
2022/03/16 00:40:16;;;;;;;5.03;2.70;;;2.20;99.90;;;;;;5040679;28;20035;-66
2022/03/16 00:42:41;;;;;;;5.55;2.75;;;2.10;99.90;;;;;;5042634;28;20540;-66
2022/03/16 00:45:07;;;;;;;5.38;2.55;;;2.30;99.90;;;;;;5037678;28;20022;-66
2022/03/16 00:47:33;;;;;;;11.20;3.10;;;2.10;99.90;;;;;;5041823;28;20032;-66
2022/03/16 00:49:58;;;;;;;5.13;2.30;;;2.10;99.90;;;;;;5039459;28;20040;-66
2022/03/16 00:52:24;;;;;;;4.72;2.65;;;2.50;99.90;;;;;;5041962;28;20072;-66
2022/03/16 00:54:49;;;;;;;8.98;3.80;;;2.30;99.90;;;;;;5045284;28;20064;-66
2022/03/16 00:57:15;;;;;;;6.57;3.35;;;2.50;99.90;;;;;;5038515;28;20102;-66
2022/03/16 00:59:41;;;;;;;7.82;2.78;;;2.80;99.90;;;;;;5038334;28;20024;-66
2022/03/16 01:02:07;;;;;;;7.55;3.55;;;2.90;99.90;;;;;;5038989;28;20051;-66
2022/03/16 01:04:32;;;;;;;4.50;2.45;;;3.00;99.90;;;;;;5044920;28;20389;-66
2022/03/16 01:06:58;;;;;;;8.57;2.80;;;3.00;99.90;;;;;;5041208;28;20382;-66
2022/03/16 01:09:23;;;;;;;6.43;2.95;;;2.90;99.90;;;;;;5038661;28;20493;-66
2022/03/16 01:11:49;;;;;;;5.15;2.88;;;3.00;99.90;;;;;;5042391;28;20035;-66
2022/03/16 01:14:16;;;;;;;13.80;3.38;;;3.10;99.90;;;;;;5047227;28;20033;-66
2022/03/16 01:16:42;;;;;;;4.75;2.22;;;3.00;99.90;;;;;;5035711;28;20053;-66
2022/03/16 01:19:07;;;;;;;6.95;3.33;;;2.80;99.90;;;;;;5042959;28;20107;-66
2022/03/16 01:21:34;;;;;;;17.20;3.53;;;2.80;99.90;;;;;;5033229;28;20025;-66
2022/03/16 01:23:59;;;;;;;7.68;3.35;;;2.90;99.90;;;;;;5044979;28;20488;-66
2022/03/16 01:26:25;;;;;;;7.18;3.42;;;2.80;99.90;;;;;;5037481;28;20040;-66
2022/03/16 01:28:51;;;;;;;7.13;3.10;;;2.60;99.90;;;;;;5032799;28;20174;-66
2022/03/16 01:31:21;;;;;;;8.73;3.78;;;2.40;99.90;;;;;;5041612;28;20099;-66
2022/03/16 01:33:46;;;;;;;7.28;3.35;;;2.20;99.90;;;;;;5035474;28;20477;-66
2022/03/16 01:36:12;;;;;;;10.90;4.53;;;2.10;99.90;;;;;;5043817;28;20075;-66
2022/03/16 01:38:37;;;;;;;7.20;3.83;;;2.20;99.90;;;;;;5038455;28;20033;-66
2022/03/16 01:41:03;;;;;;;6.72;2.88;;;2.40;99.90;;;;;;5039070;28;20438;-66
2022/03/16 01:43:29;;;;;;;10.35;3.47;;;2.30;99.90;;;;;;5038793;28;20120;-66
2022/03/16 01:45:55;;;;;;;8.90;3.72;;;2.20;99.90;;;;;;5043063;28;20060;-66
2022/03/16 01:48:21;;;;;;;5.57;2.75;;;2.20;99.90;;;;;;5041011;28;20126;-66
2022/03/16 01:50:47;;;;;;;7.47;2.60;;;2.20;99.90;;;;;;5037939;28;20041;-66
2022/03/16 01:53:13;;;;;;;7.07;3.33;;;2.20;99.90;;;;;;5038817;28;20481;-66
2022/03/16 01:55:40;;;;;;;8.48;3.40;;;2.20;99.90;;;;;;5039309;28;20028;-66
2022/03/16 01:58:06;;;;;;;7.70;3.40;;;2.30;99.90;;;;;;5043649;28;20029;-66
2022/03/16 02:00:32;;;;;;;6.18;3.05;;;2.30;99.90;;;;;;5038596;28;20027;-66
2022/03/16 02:02:58;;;;;;;7.25;2.83;;;2.50;99.90;;;;;;5041568;28;20024;-66
2022/03/16 02:05:23;;;;;;;5.70;2.03;;;2.50;99.90;;;;;;5043122;28;20029;-66
2022/03/16 02:07:50;;;;;;;6.25;3.35;;;2.40;99.90;;;;;;5039236;28;20061;-66
2022/03/16 02:10:17;;;;;;;5.32;2.45;;;2.20;99.90;;;;;;5042707;28;20037;-66
2022/03/16 02:12:48;;;;;;;11.20;3.10;;;2.20;99.90;;;;;;5039303;28;20048;-66
2022/03/16 02:15:14;;;;;;;8.20;2.65;;;2.40;99.90;;;;;;5045594;28;20075;-66
2022/03/16 02:17:40;;;;;;;5.15;2.72;;;2.30;99.90;;;;;;5038715;28;20024;-66
2022/03/16 02:20:07;;;;;;;8.43;2.50;;;2.10;99.90;;;;;;5038772;28;20042;-66
2022/03/16 02:22:36;;;;;;;7.15;2.80;;;2.10;99.90;;;;;;5045806;28;20013;-66
2022/03/16 02:25:03;;;;;;;8.88;2.83;;;2.20;99.90;;;;;;5040623;28;20534;-66
2022/03/16 02:27:29;;;;;;;7.13;2.80;;;2.30;99.90;;;;;;5046644;28;20055;-66
2022/03/16 02:29:55;;;;;;;6.95;2.90;;;2.40;99.90;;;;;;5038845;28;20054;-66
2022/03/16 02:32:20;;;;;;;4.30;2.47;;;2.20;99.90;;;;;;5045940;28;20082;-66
2022/03/16 02:34:46;;;;;;;4.10;2.17;;;2.50;99.90;;;;;;5044814;28;20462;-66
2022/03/16 02:37:11;;;;;;;8.38;2.80;;;2.60;99.90;;;;;;5049716;28;20496;-66
2022/03/16 02:39:37;;;;;;;8.40;3.10;;;2.60;99.90;;;;;;5039749;28;20103;-66
2022/03/16 02:42:04;;;;;;;5.53;3.20;;;2.60;99.90;;;;;;5040825;28;20064;-66
2022/03/16 02:44:30;;;;;;;9.35;3.30;;;2.60;99.90;;;;;;5040308;28;20035;-66
2022/03/16 02:46:55;;;;;;;5.13;1.77;;;2.60;99.90;;;;;;5041293;28;20104;-66
2022/03/16 02:49:21;;;;;;;9.98;4.18;;;2.50;99.90;;;;;;5041403;28;20025;-66
2022/03/16 02:51:47;;;;;;;7.03;3.42;;;2.40;99.90;;;;;;5041164;28;20025;-66
2022/03/16 02:54:13;;;;;;;11.32;3.80;;;2.20;99.90;;;;;;5046263;28;20029;-66
2022/03/16 02:56:39;;;;;;;17.00;2.17;;;2.20;99.90;;;;;;5044282;28;20531;-66
2022/03/16 02:59:04;;;;;;;9.52;2.92;;;2.20;99.90;;;;;;5042699;28;20029;-66
2022/03/16 03:01:30;;;;;;;6.00;3.10;;;2.30;99.90;;;;;;5037303;28;20018;-66
2022/03/16 03:03:56;;;;;;;7.72;3.38;;;2.30;99.90;;;;;;5041817;28;20082;-66
2022/03/16 03:06:22;;;;;;;7.90;3.22;;;2.10;99.90;;;;;;5041905;28;20087;-66
2022/03/16 03:08:48;;;;;;;6.13;3.17;;;1.90;99.90;;;;;;5038709;28;20281;-66
2022/03/16 03:11:14;;;;;;;6.57;3.38;;;1.90;99.90;;;;;;5043584;28;20082;-66
2022/03/16 03:13:40;;;;;;;3.65;2.05;;;1.70;99.90;;;;;;5041135;28;20032;-66
2022/03/16 03:16:05;;;;;;;5.57;2.65;;;1.50;99.90;;;;;;5038280;28;20864;-66
2022/03/16 03:18:31;;;;;;;7.53;3.38;;;1.30;99.90;;;;;;5041000;28;20025;-66
2022/03/16 03:20:56;;;;;;;4.85;2.45;;;1.20;99.90;;;;;;5040632;28;20040;-66
2022/03/16 03:23:22;;;;;;;8.38;2.58;;;1.20;99.90;;;;;;5042244;28;20362;-66
2022/03/16 03:25:47;;;;;;;9.45;2.83;;;1.10;99.90;;;;;;5044993;28;20037;-66
2022/03/16 03:28:15;;;;;;;3.00;2.03;;;1.10;99.90;;;;;;5041623;28;20037;-66
2022/03/16 03:30:40;;;;;;;5.78;2.58;;;1.00;99.90;;;;;;5035073;28;20498;-66
2022/03/16 03:33:06;;;;;;;6.43;3.17;;;0.90;99.90;;;;;;5045340;28;20343;-66
2022/03/16 03:35:31;;;;;;;4.90;2.40;;;0.90;99.90;;;;;;5041553;28;20075;-66
2022/03/16 03:37:57;;;;;;;7.97;2.45;;;1.00;99.90;;;;;;5035631;28;20033;-66
2022/03/16 03:40:23;;;;;;;7.20;2.80;;;1.10;99.90;;;;;;5045369;28;20047;-66
2022/03/16 03:42:49;;;;;;;10.73;3.00;;;1.10;99.90;;;;;;5049121;28;20017;-66
2022/03/16 03:45:15;;;;;;;9.57;3.03;;;0.90;99.90;;;;;;5037192;28;20032;-66
2022/03/16 03:47:40;;;;;;;6.25;2.67;;;0.90;99.90;;;;;;5043315;28;20028;-66
2022/03/16 03:50:06;;;;;;;6.57;2.85;;;0.70;99.90;;;;;;5043002;28;20391;-66
2022/03/16 03:52:32;;;;;;;7.32;2.72;;;0.60;99.90;;;;;;5040355;28;20115;-66
2022/03/16 03:54:57;;;;;;;7.80;3.28;;;0.50;99.90;;;;;;5028684;28;20492;-66
2022/03/16 03:57:23;;;;;;;6.90;2.88;;;0.50;99.90;;;;;;5027688;28;20380;-66
2022/03/16 03:59:49;;;;;;;9.55;2.97;;;0.50;99.90;;;;;;5028859;28;20029;-66
2022/03/16 04:02:14;;;;;;;7.40;3.33;;;0.40;99.90;;;;;;5027960;28;20108;-66
2022/03/16 04:04:41;;;;;;;4.75;2.35;;;0.40;99.90;;;;;;5029186;28;20561;-66
2022/03/16 04:07:06;;;;;;;4.80;1.98;;;0.40;99.90;;;;;;5027437;28;20025;-66
2022/03/16 04:09:32;;;;;;;17.23;2.83;;;0.40;99.90;;;;;;5039389;28;20043;-66
2022/03/16 04:11:58;;;;;;;4.95;2.83;;;0.40;99.90;;;;;;5029590;28;20029;-66
2022/03/16 04:14:24;;;;;;;7.10;3.10;;;0.40;99.90;;;;;;5035826;28;20033;-66
2022/03/16 04:16:50;;;;;;;8.82;2.80;;;0.40;99.90;;;;;;5035738;28;20030;-66
2022/03/16 04:19:15;;;;;;;12.40;3.25;;;0.30;99.90;;;;;;5031081;28;20556;-66
2022/03/16 04:21:41;;;;;;;7.32;3.05;;;0.50;99.90;;;;;;5029386;28;20026;-67
2022/03/16 04:24:07;;;;;;;4.93;1.83;;;0.60;99.90;;;;;;5031570;28;20028;-66
2022/03/16 04:26:32;;;;;;;6.32;2.97;;;0.70;99.90;;;;;;5026976;28;20040;-66
2022/03/16 04:28:58;;;;;;;4.88;2.33;;;0.70;99.90;;;;;;5026384;28;20100;-66
2022/03/16 04:31:24;;;;;;;4.80;1.80;;;0.50;99.90;;;;;;5028428;28;20477;-66
2022/03/16 04:33:49;;;;;;;6.43;3.08;;;0.50;99.90;;;;;;5028609;28;20526;-66
2022/03/16 04:36:15;;;;;;;4.43;2.15;;;0.50;99.90;;;;;;5040495;28;20037;-66
2022/03/16 04:38:40;;;;;;;5.15;2.40;;;0.50;99.90;;;;;;5028682;28;20394;-66
2022/03/16 04:41:06;;;;;;;4.55;1.85;;;0.50;99.90;;;;;;5044143;28;20035;-66
2022/03/16 04:43:32;;;;;;;5.63;2.83;;;0.30;99.90;;;;;;5028209;28;20071;-66
2022/03/16 04:45:57;;;;;;;7.43;2.78;;;0.40;99.90;;;;;;5027939;28;20029;-66
2022/03/16 04:48:23;;;;;;;7.30;3.42;;;0.20;99.90;;;;;;5029897;28;20032;-66
2022/03/16 04:50:48;;;;;;;6.70;2.85;;;0.10;99.90;;;;;;5041706;28;20086;-67
2022/03/16 04:53:14;;;;;;;7.18;2.50;;;-0.10;99.90;;;;;;5037085;28;20033;-66
2022/03/16 04:55:40;;;;;;;6.10;3.13;;;-0.10;99.90;;;;;;5044901;28;20025;-66
2022/03/16 04:58:07;;;;;;;6.65;2.47;;;0.00;99.90;;;;;;5045172;28;20492;-67
2022/03/16 05:00:37;;;;;;;11.10;3.22;;;0.20;99.90;;;;;;5036874;28;20028;-66
2022/03/16 05:03:03;;;;;;;4.00;2.00;;;0.20;99.90;;;;;;5040695;28;20052;-67
2022/03/16 05:05:29;;;;;;;6.75;3.13;;;0.10;99.90;;;;;;5039481;28;20056;-67
2022/03/16 05:07:56;;;;;;;8.63;3.38;;;0.00;99.90;;;;;;5039613;28;20036;-66
2022/03/16 05:10:21;;;;;;;3.45;1.83;;;0.00;99.90;;;;;;5042703;28;20558;-66
2022/03/16 05:12:47;;;;;;;6.28;2.60;;;0.10;99.90;;;;;;5035415;28;20028;-66
2022/03/16 05:15:15;;;;;;;7.68;2.67;;;0.30;99.90;;;;;;5040101;28;20029;-66
2022/03/16 05:17:41;;;;;;;6.50;2.17;;;0.30;99.90;;;;;;5041745;28;20503;-66
2022/03/16 05:20:07;;;;;;;10.20;3.75;;;0.40;99.90;;;;;;5038991;28;20022;-66
2022/03/16 05:22:41;;;;;;;4.93;2.53;;;0.30;99.90;;;;;;5040648;28;20018;-67
2022/03/16 05:25:07;;;;;;;5.38;2.45;;;0.20;99.90;;;;;;5033287;28;20034;-67
2022/03/16 05:27:34;;;;;;;8.13;3.03;;;0.10;99.90;;;;;;5033885;28;20025;-67
2022/03/16 05:29:59;;;;;;;7.10;2.78;;;0.10;99.90;;;;;;5035084;28;20045;-66
2022/03/16 05:32:25;;;;;;;4.25;1.80;;;0.20;99.90;;;;;;5038095;28;20563;-67
2022/03/16 05:34:51;;;;;;;8.55;2.63;;;0.20;99.90;;;;;;5038906;28;20105;-66
2022/03/16 05:37:16;;;;;;;4.50;2.50;;;0.30;99.90;;;;;;5046382;28;20052;-67
2022/03/16 05:39:42;;;;;;;4.10;2.28;;;0.30;99.90;;;;;;5042629;28;20021;-66
2022/03/16 05:42:08;;;;;;;3.50;2.03;;;0.20;99.90;;;;;;5034048;28;20040;-66
2022/03/16 05:44:34;;;;;;;3.95;1.88;;;0.20;99.90;;;;;;5045056;28;20029;-66
2022/03/16 05:46:59;;;;;;;4.75;2.58;;;0.20;99.90;;;;;;5038646;28;20393;-66
2022/03/16 05:49:28;;;;;;;6.32;2.85;;;0.30;99.90;;;;;;5040546;28;20085;-66
2022/03/16 05:51:54;;;;;;;8.27;3.58;;;0.30;99.90;;;;;;5040983;28;20080;-66
2022/03/16 05:54:20;;;;;;;6.97;3.88;;;0.40;99.90;;;;;;5038142;28;20033;-66
2022/03/16 05:56:45;;;;;;;4.22;2.20;;;0.40;99.90;;;;;;5041909;28;20100;-66
2022/03/16 05:59:11;;;;;;;4.43;2.25;;;0.40;99.90;;;;;;5043648;28;20020;-66
2022/03/16 06:01:36;;;;;;;3.97;2.17;;;0.50;99.90;;;;;;5052642;28;20090;-66
2022/03/16 06:04:02;;;;;;;6.00;3.15;;;0.40;99.90;;;;;;5041248;28;20056;-66
2022/03/16 06:06:29;;;;;;;7.15;2.60;;;0.50;99.90;;;;;;5046292;28;20024;-66
2022/03/16 06:08:56;;;;;;;15.52;4.47;;;0.80;99.90;;;;;;5038179;28;20641;-66
2022/03/16 06:11:21;;;;;;;8.77;3.38;;;0.80;99.90;;;;;;5041547;28;20393;-67
2022/03/16 06:13:47;;;;;;;10.82;4.63;;;1.00;99.90;;;;;;5041660;28;20025;-66
2022/03/16 06:16:13;;;;;;;5.80;3.08;;;1.10;99.90;;;;;;5041120;28;20706;-66
2022/03/16 06:18:47;;;;;;;6.70;2.83;;;1.10;99.90;;;;;;5047056;28;20013;-66
2022/03/16 06:21:13;;;;;;;8.05;3.97;;;1.10;99.90;;;;;;5041527;28;20031;-66
2022/03/16 06:23:39;;;;;;;11.00;2.72;;;1.00;99.90;;;;;;5042494;28;20389;-66
2022/03/16 06:26:05;;;;;;;6.05;3.65;;;1.00;99.90;;;;;;5044405;28;20029;-67
2022/03/16 06:28:32;;;;;;;7.22;3.58;;;1.00;99.90;;;;;;5042241;28;20576;-66
2022/03/16 06:30:57;;;;;;;7.72;3.78;;;1.00;99.90;;;;;;5041176;28;20053;-66
2022/03/16 06:33:23;;;;;;;10.23;3.80;;;1.10;99.90;;;;;;5032059;28;20473;-65
2022/03/16 06:35:49;;;;;;;11.75;4.57;;;1.00;99.90;;;;;;5037994;28;20443;-65
2022/03/16 06:38:15;;;;;;;10.73;4.20;;;1.10;99.90;;;;;;5041258;28;20037;-65
2022/03/16 06:40:40;;;;;;;9.48;4.60;;;1.20;99.90;;;;;;5039862;28;20592;-65
2022/03/16 06:43:06;;;;;;;6.20;2.95;;;1.20;99.90;;;;;;5042550;28;20036;-66
2022/03/16 06:45:32;;;;;;;9.02;3.10;;;1.20;99.90;;;;;;5036093;28;20029;-66
2022/03/16 06:47:59;;;;;;;9.27;4.40;;;1.30;99.90;;;;;;5026427;28;20032;-66
2022/03/16 06:50:27;;;;;;;9.25;4.07;;;1.50;99.90;;;;;;5035725;28;20105;-66
2022/03/16 06:52:54;;;;;;;9.95;4.88;;;1.60;99.90;;;;;;5022440;28;20370;-66
2022/03/16 06:55:19;;;;;;;9.13;3.67;;;1.60;99.90;;;;;;5043474;28;20029;-66
2022/03/16 06:57:45;;;;;;;13.20;6.07;;;1.80;99.90;;;;;;5037526;28;20028;-66
2022/03/16 07:00:13;;;;;;;13.77;3.75;;;1.80;99.90;;;;;;5034138;28;20029;-66
2022/03/16 07:02:55;;;;;;;6.28;3.08;;;1.90;99.90;;;;;;5038897;28;20488;-66
2022/03/16 07:05:24;;;;;;;8.38;3.83;;;2.00;99.90;;;;;;5034795;28;20028;-66
2022/03/16 07:07:50;;;;;;;7.18;3.80;;;2.10;99.90;;;;;;5043308;28;20366;-66
2022/03/16 07:10:16;;;;;;;17.17;6.22;;;2.10;99.90;;;;;;5042267;28;20504;-66
2022/03/16 07:12:41;;;;;;;7.43;4.38;;;2.30;99.90;;;;;;5037488;28;20371;-66
2022/03/16 07:15:08;;;;;;;10.25;3.88;;;2.30;99.90;;;;;;5041875;28;20036;-65
2022/03/16 07:17:33;;;;;;;6.32;3.60;;;2.40;99.90;;;;;;5039295;28;20048;-65
2022/03/16 07:19:59;;;;;;;5.65;2.65;;;2.50;99.90;;;;;;5041597;28;20025;-65
2022/03/16 07:22:24;;;;;;;6.18;2.78;;;2.50;99.90;;;;;;5038197;28;20025;-65
2022/03/16 07:24:50;;;;;;;6.57;3.10;;;2.60;99.90;;;;;;5035515;28;20036;-65
2022/03/16 07:27:16;;;;;;;8.10;3.00;;;2.70;99.90;;;;;;5038354;28;20108;-65
2022/03/16 07:29:41;;;;;;;10.02;4.60;;;2.80;99.90;;;;;;5031247;28;20060;-65
2022/03/16 07:32:07;;;;;;;10.95;3.55;;;2.90;99.90;;;;;;5038914;28;20052;-67
2022/03/16 07:34:33;;;;;;;8.90;3.00;;;3.20;99.90;;;;;;5034955;28;20126;-67
2022/03/16 07:36:58;;;;;;;9.68;2.72;;;3.30;99.90;;;;;;5031400;28;20022;-66
2022/03/16 07:39:24;;;;;;;7.95;3.75;;;3.50;99.90;;;;;;5042526;28;20021;-66
2022/03/16 07:41:50;;;;;;;18.38;4.68;;;3.60;99.90;;;;;;5040188;28;20045;-66
2022/03/16 07:44:16;;;;;;;7.13;3.17;;;3.80;99.90;;;;;;5043636;28;20029;-66
2022/03/16 07:46:41;;;;;;;7.25;3.72;;;3.90;99.90;;;;;;5026647;28;20025;-66
2022/03/16 07:49:07;;;;;;;7.57;3.63;;;4.10;99.90;;;;;;5039580;28;20028;-65
2022/03/16 07:51:33;;;;;;;13.98;4.55;;;4.10;99.90;;;;;;5042966;28;20020;-66
2022/03/16 07:53:59;;;;;;;10.43;3.42;;;4.20;99.90;;;;;;5038863;28;20031;-66
2022/03/16 07:56:24;;;;;;;12.73;4.43;;;4.40;99.90;;;;;;5029201;28;20029;-66
2022/03/16 07:58:51;;;;;;;12.43;4.88;;;4.50;99.90;;;;;;5037976;28;20021;-66
2022/03/16 08:01:17;;;;;;;16.38;4.95;;;4.70;99.90;;;;;;5041174;28;20112;-66
2022/03/16 08:03:42;;;;;;;22.77;4.22;;;4.80;99.90;;;;;;5022936;28;20037;-66
2022/03/16 08:06:08;;;;;;;22.63;5.57;;;5.00;99.90;;;;;;5038064;28;20024;-66
2022/03/16 08:08:39;;;;;;;10.63;4.35;;;5.20;99.90;;;;;;5040334;28;20379;-66
2022/03/16 08:11:07;;;;;;;8.65;3.28;;;5.50;99.90;;;;;;5035553;28;20039;-66
2022/03/16 08:13:36;;;;;;;9.68;3.60;;;5.60;99.90;;;;;;5022913;28;20025;-66
2022/03/16 08:16:01;;;;;;;9.32;3.90;;;5.60;99.90;;;;;;5035377;28;20029;-67
2022/03/16 08:18:27;;;;;;;8.38;3.78;;;5.80;99.90;;;;;;5038911;28;20543;-66
2022/03/16 08:20:53;;;;;;;12.43;4.32;;;5.90;99.90;;;;;;5044883;28;20017;-66
2022/03/16 08:23:18;;;;;;;13.00;5.00;;;6.30;99.90;;;;;;5039525;28;20505;-66
2022/03/16 08:25:44;;;;;;;12.20;4.50;;;6.30;99.90;;;;;;5022660;28;20032;-66
2022/03/16 08:28:09;;;;;;;14.95;3.67;;;6.40;99.90;;;;;;5036507;28;20103;-66
2022/03/16 08:30:35;;;;;;;15.85;6.05;;;6.60;99.90;;;;;;5018282;28;20045;-66
2022/03/16 08:33:01;;;;;;;13.48;3.85;;;6.70;99.90;;;;;;5016604;28;20393;-67
2022/03/16 08:35:27;;;;;;;12.63;4.80;;;6.90;99.90;;;;;;5034665;28;20041;-66
2022/03/16 08:37:54;;;;;;;14.80;6.07;;;7.40;99.90;;;;;;5027566;28;20017;-66
2022/03/16 08:40:20;;;;;;;12.00;4.93;;;7.80;99.90;;;;;;5020555;28;20115;-67
2022/03/16 08:42:46;;;;;;;21.63;7.85;;;8.20;99.90;;;;;;5039776;28;20025;-66
2022/03/16 08:45:11;;;;;;;18.73;6.28;;;8.30;99.90;;;;;;5034461;28;20034;-66
2022/03/16 08:47:37;;;;;;;16.83;6.00;;;8.70;99.90;;;;;;5038412;28;20021;-66
2022/03/16 08:50:06;;;;;;;14.55;5.93;;;9.60;99.90;;;;;;5019053;28;20045;-66
2022/03/16 08:52:32;;;;;;;11.68;5.15;;;10.00;99.90;;;;;;5017701;28;20045;-66
2022/03/16 08:54:57;;;;;;;17.33;5.93;;;10.90;99.90;;;;;;5016088;28;20033;-66
2022/03/16 08:57:23;;;;;;;15.18;5.13;;;11.30;99.90;;;;;;5037373;28;20124;-66
2022/03/16 08:59:49;;;;;;;20.98;4.90;;;12.20;99.90;;;;;;5036471;28;20456;-66
2022/03/16 09:02:15;;;;;;;11.07;4.13;;;12.80;99.90;;;;;;5034285;28;20811;-66
2022/03/16 09:04:41;;;;;;;13.00;4.90;;;12.20;99.90;;;;;;5034563;28;20025;-66
2022/03/16 09:07:07;;;;;;;13.32;4.88;;;12.00;99.90;;;;;;5030686;28;20540;-66
2022/03/16 09:09:33;;;;;;;8.77;3.78;;;11.90;99.90;;;;;;5020222;28;20032;-66
2022/03/16 09:11:59;;;;;;;10.35;3.60;;;12.10;99.90;;;;;;5030883;28;20109;-66
2022/03/16 09:14:25;;;;;;;13.38;3.65;;;12.80;99.90;;;;;;5039663;28;20037;-66
2022/03/16 09:16:51;;;;;;;9.23;3.63;;;13.40;99.90;;;;;;5036682;28;20436;-66
2022/03/16 09:19:20;;;;;;;13.27;3.75;;;13.90;99.90;;;;;;5040842;28;20105;-67
2022/03/16 09:21:47;;;;;;;15.35;3.75;;;14.00;99.90;;;;;;5018238;28;20116;-66
2022/03/16 09:24:13;;;;;;;10.75;3.63;;;14.40;99.90;;;;;;5034935;28;20035;-66
2022/03/16 09:26:42;;;;;;;11.13;3.35;;;13.50;99.90;;;;;;5019151;28;20029;-66
2022/03/16 09:29:09;;;;;;;10.45;3.90;;;13.90;99.90;;;;;;5033048;28;20033;-66
2022/03/16 09:31:38;;;;;;;9.50;3.40;;;14.40;99.90;;;;;;5036136;28;20162;-66
2022/03/16 09:34:05;;;;;;;14.03;4.20;;;15.00;99.90;;;;;;5038314;28;20382;-66
2022/03/16 09:36:35;;;;;;;13.13;4.38;;;14.70;99.90;;;;;;5037962;28;20030;-68
2022/03/16 09:39:00;;;;;;;10.45;3.97;;;14.50;99.90;;;;;;5046716;28;20094;-66
2022/03/16 09:41:27;;;;;;;9.98;3.85;;;15.30;99.90;;;;;;5044247;28;20028;-66
2022/03/16 09:43:53;;;;;;;14.20;4.53;;;14.90;99.90;;;;;;5022608;28;20040;-66
2022/03/16 09:46:23;;;;;;;10.90;3.63;;;14.20;99.90;;;;;;5045174;28;20098;-66
2022/03/16 09:48:49;;;;;;;12.02;3.70;;;13.40;99.90;;;;;;5042926;28;20122;-66
2022/03/16 09:51:17;;;;;;;11.50;3.58;;;13.10;99.90;;;;;;5043260;28;20438;-66
2022/03/16 09:53:42;;;;;;;10.40;3.00;;;13.10;99.90;;;;;;5040617;28;20036;-66
2022/03/16 09:56:09;;;;;;;10.55;3.25;;;12.90;99.90;;;;;;5025611;28;20029;-66
2022/03/16 09:58:35;;;;;;;7.57;2.92;;;13.20;99.90;;;;;;5021747;28;20550;-66
2022/03/16 10:01:05;;;;;;;9.27;3.28;;;13.00;99.90;;;;;;5041771;28;20025;-66
2022/03/16 10:03:31;;;;;;;8.60;3.38;;;12.70;99.90;;;;;;5027191;28;20079;-66
2022/03/16 10:05:58;;;;;;;6.97;2.95;;;12.60;99.90;;;;;;5037244;28;20374;-66
2022/03/16 10:08:36;;;;;;;10.15;3.25;;;12.60;99.90;;;;;;5035616;28;20028;-66
2022/03/16 10:14:08;;;;;;;9.73;2.92;;;12.80;99.90;;;;;;5043841;28;20062;-67
2022/03/16 10:19:24;;;;;;;9.60;3.08;;;13.70;99.90;;;;;;5045126;28;20060;-67
2022/03/16 10:22:04;;;;;;;8.02;2.47;;;14.40;99.90;;;;;;5046774;28;20543;-67
2022/03/16 10:24:30;;;;;;;15.32;2.90;;;15.20;99.90;;;;;;5025940;28;20349;-67
2022/03/16 10:26:58;;;;;;;6.13;1.98;;;15.50;98.90;;;;;;5021239;28;20040;-67
2022/03/16 10:29:26;;;;;;;7.43;2.47;;;15.20;99.70;;;;;;5029689;28;20107;-67
2022/03/16 10:32:02;;;;;;;10.10;2.67;;;15.50;98.70;;;;;;5039811;28;20618;-67
2022/03/16 10:34:28;;;;;;;8.48;2.95;;;15.10;98.40;;;;;;5033237;28;20017;-67
2022/03/16 10:36:54;;;;;;;7.85;2.65;;;15.70;98.10;;;;;;5023006;28;20040;-67
2022/03/16 10:39:35;;;;;;;13.02;2.65;;;16.00;97.70;;;;;;5042194;28;20227;-66
2022/03/16 10:47:55;;;;;;;7.28;2.75;;;16.40;97.00;;;;;;5041993;28;20040;-66
2022/03/16 10:50:20;;;;;;;5.15;1.80;;;16.30;96.80;;;;;;5040071;28;20385;-66
2022/03/16 10:52:48;;;;;;;8.73;2.75;;;16.90;95.60;;;;;;5040747;28;20071;-67
2022/03/16 10:55:14;;;;;;;6.07;2.13;;;17.40;94.80;;;;;;5019543;28;20026;-67
2022/03/16 10:57:42;;;;;;;9.43;2.88;;;17.60;93.90;;;;;;5021383;28;20087;-67
2022/03/16 11:00:08;;;;;;;6.93;2.20;;;17.90;94.60;;;;;;5021209;28;20118;-66
2022/03/16 11:02:36;;;;;;;9.35;2.88;;;18.00;93.40;;;;;;5038323;28;20162;-67
2022/03/16 11:05:02;;;;;;;7.78;2.80;;;18.10;91.80;;;;;;5032441;28;20037;-66
2022/03/16 11:07:28;;;;;;;12.57;2.42;;;18.10;91.50;;;;;;5037033;28;20032;-67
2022/03/16 11:09:54;;;;;;;8.07;2.95;;;17.40;93.00;;;;;;5022039;28;20025;-66
2022/03/16 11:15:06;;;;;;;7.93;2.63;;;18.60;92.10;;;;;;5037975;28;20082;-67
2022/03/16 11:17:33;;;;;;;9.60;2.92;;;18.20;91.30;;;;;;5038298;28;20327;-66
2022/03/16 11:20:00;;;;;;;6.55;2.10;;;17.70;91.80;;;;;;5039316;28;20113;-66
2022/03/16 11:22:32;;;;;;;7.97;2.50;;;18.50;91.00;;;;;;5041052;28;20021;-66
2022/03/16 11:25:19;;;;;;;9.82;2.88;;;18.50;90.90;;;;;;5033270;28;20040;-66
2022/03/16 11:27:52;;;;;;;9.80;2.72;;;18.00;91.00;;;;;;5020895;28;20036;-66
2022/03/16 11:30:33;;;;;;;7.63;2.72;;;18.60;90.20;;;;;;5021305;28;20474;-66
2022/03/16 11:33:05;;;;;;;9.55;2.78;;;18.50;90.80;;;;;;5032223;28;20548;-66
2022/03/16 11:35:37;;;;;;;9.80;2.50;;;19.40;90.30;;;;;;5037634;28;20029;-67
2022/03/16 11:38:09;;;;;;;9.88;3.45;;;20.00;88.60;;;;;;5038591;28;20107;-66
2022/03/16 11:40:36;;;;;;;7.80;2.28;;;20.20;86.80;;;;;;5042521;28;20025;-66
2022/03/16 11:43:04;;;;;;;8.20;2.67;;;19.90;87.20;;;;;;5027458;28;20017;-66
2022/03/16 11:45:41;;;;;;;7.50;2.83;;;20.00;84.90;;;;;;5040126;28;20037;-66
2022/03/16 11:48:32;;;;;;;9.40;2.90;;;20.40;84.80;;;;;;5040026;28;20083;-66
2022/03/16 11:51:16;;;;;;;6.55;2.22;;;20.00;83.30;;;;;;5040901;28;20183;-66
2022/03/16 11:53:50;;;;;;;7.05;2.15;;;19.70;82.40;;;;;;5021734;28;20110;-66
2022/03/16 11:56:25;;;;;;;6.05;2.22;;;19.60;83.10;;;;;;5039593;28;20021;-66
2022/03/16 11:59:05;;;;;;;8.82;2.90;;;19.20;83.10;;;;;;5032348;28;20041;-66
2022/03/16 12:01:37;;;;;;;;;;;19.20;83.80;;;;;;5037993;28;20143;-66
2022/03/16 12:04:12;;;;;;;6.80;1.85;;;19.20;83.50;;;;;;5037375;28;19909;-67
2022/03/16 12:07:04;;;;;;;6.55;2.28;;;20.10;80.80;;;;;;5037923;28;20094;-66
2022/03/16 12:09:49;;;;;;;8.20;3.00;;;19.50;80.30;;;;;;5021141;28;20083;-66
2022/03/16 12:15:19;;;;;;;9.32;2.80;;;19.10;82.00;;;;;;5036669;28;20117;-66
2022/03/16 12:17:51;;;;;;;6.05;2.17;;;19.80;81.90;;;;;;5038498;28;20022;-66
2022/03/16 12:20:40;;;;;;;6.68;2.60;;;19.80;80.00;;;;;;5023970;28;20030;-66
2022/03/16 12:23:14;;;;;;;7.07;2.25;;;19.80;80.90;;;;;;5040201;28;20306;-66
2022/03/16 12:25:42;;;;;;;5.95;1.70;;;19.90;80.00;;;;;;5044114;28;20025;-66
2022/03/16 12:31:07;;;;;;;8.80;3.35;;;19.70;77.40;;;;;;5040585;28;20157;-66
2022/03/16 12:33:45;;;;;;;7.93;2.92;;;19.40;78.50;;;;;;5020679;28;20064;-66
2022/03/16 12:36:26;;;;;;;6.68;2.22;;;18.90;80.20;;;;;;5019678;28;20044;-66
2022/03/16 12:38:55;;;;;;;7.53;2.85;;;19.40;79.20;;;;;;5024616;28;20082;-66
2022/03/16 12:44:12;;;;;;;5.82;2.15;;;19.90;78.60;;;;;;5040641;28;20048;-66
2022/03/16 12:46:48;;;;;;;8.20;2.67;;;20.20;77.80;;;;;;5041315;28;20400;-66
2022/03/16 12:49:20;;;;;;;7.32;2.65;;;20.20;77.50;;;;;;5035802;28;20029;-66
2022/03/16 12:51:49;;;;;;;6.63;2.33;;;21.10;75.00;;;;;;5022308;28;20021;-67
2022/03/16 12:54:23;;;;;;;5.65;2.15;;;21.30;73.50;;;;;;5038425;28;20307;-67
2022/03/16 12:56:50;;;;;;;5.80;2.10;;;20.90;73.00;;;;;;5012332;28;20037;-67
2022/03/16 12:59:26;;;;;;;6.55;2.05;;;21.20;72.90;;;;;;5018935;28;20032;-67
2022/03/16 13:01:54;;;;;;;8.20;2.58;;;21.30;72.30;;;;;;5032937;28;20018;-67
2022/03/16 13:04:23;;;;;;;5.95;2.10;;;21.50;72.00;;;;;;5034764;28;20029;-67
2022/03/16 13:06:51;;;;;;;6.05;1.90;;;21.50;70.50;;;;;;5034417;28;20029;-67
2022/03/16 13:09:17;;;;;;;7.45;2.53;;;21.60;70.20;;;;;;5021651;28;20061;-67
2022/03/16 13:11:42;;;;;;;7.28;2.28;;;21.40;70.70;;;;;;5035438;28;20573;-66
2022/03/16 13:14:16;;;;;;;6.50;1.88;;;21.60;70.20;;;;;;5020506;28;20473;-67